Weather at Mayajigua Airport

Public forecast

Using degrees Celsius for public forecast. Weather courtesy of forecast.io.

Closest aviation weather report (METAR) to Mayajigua Airport

Closest report is Jardines Del Rey Airport, 43.0 nm (79.7 km) ENE. Retrieved 2021/06/13 10:50 UTC (44 minutes ago):

MUCC 131050Z 22003KT 9000 BKN040 24/24 Q1014

Closest aviation forecast (TAF) to Mayajigua Airport

Closest forecast is Jardines Del Rey Airport, 43.0 nm (79.7 km) ENE. Retrieved 2021/06/13 06:03 UTC (6 hours ago):

TAF MUCC 130500Z 1306/1406 VRB03KT 9000 SCT020 BECMG 1313/1315 19006KT TEMPO 1322/1401 4000 TSRA BKN018CB BKN030 BECMG 1402/1404 VRB03KT